Time;durP1;ratioP1;P1;durP2;ratioP2;P2;SDS_P1;SDS_P2;PMS_P1;PMS_P2;Temp;Humidity;BMP_temperature;BMP_pressure;BME280_temperature;BME280_humidity;BME280_pressure;Samples;Min_cycle;Max_cycle;Signal;HPM_P1;HPM_P2
2023/09/17 00:00:09;;;;;;;18.40;17.40;;;;;;;;;;4991991;28;20518;-46
2023/09/17 00:02:36;;;;;;;17.10;16.20;;;;;;;;;;4992379;28;20382;-46
2023/09/17 00:05:03;;;;;;;18.50;17.50;;;;;;;;;;4990951;28;20403;-46
2023/09/17 00:07:29;;;;;;;18.03;17.03;;;;;;;;;;4992091;28;20514;-46
2023/09/17 00:09:55;;;;;;;17.40;16.50;;;;;;;;;;4992043;28;20411;-46
2023/09/17 00:12:21;;;;;;;18.07;17.07;;;;;;;;;;4992344;28;20465;-46
2023/09/17 00:14:47;;;;;;;17.50;16.53;;;;;;;;;;4992161;28;20416;-45
2023/09/17 00:17:13;;;;;;;17.47;16.50;;;;;;;;;;4992047;28;20759;-46
2023/09/17 00:19:39;;;;;;;18.23;17.23;;;;;;;;;;4991874;28;20439;-46
2023/09/17 00:22:08;;;;;;;18.30;17.30;;;;;;;;;;4991988;28;20425;-46
2023/09/17 00:24:34;;;;;;;17.77;16.77;;;;;;;;;;4992081;28;20420;-46
2023/09/17 00:27:00;;;;;;;19.03;18.03;;;;;;;;;;4992169;28;20479;-46
2023/09/17 00:29:26;;;;;;;18.20;17.20;;;;;;;;;;4991728;28;20422;-46
2023/09/17 00:31:52;;;;;;;18.13;17.13;;;;;;;;;;4992076;28;20416;-47
2023/09/17 00:34:18;;;;;;;19.10;18.10;;;;;;;;;;4991978;28;20548;-46
2023/09/17 00:36:45;;;;;;;19.60;18.60;;;;;;;;;;4991947;28;20385;-47
2023/09/17 00:39:11;;;;;;;19.00;18.00;;;;;;;;;;4991557;28;20389;-45
2023/09/17 00:41:37;;;;;;;19.83;18.73;;;;;;;;;;4991968;28;20478;-46
2023/09/17 00:44:04;;;;;;;18.97;17.97;;;;;;;;;;4991747;28;20447;-46
2023/09/17 00:46:31;;;;;;;19.57;18.50;;;;;;;;;;4993023;28;20406;-46
2023/09/17 00:48:58;;;;;;;18.73;17.73;;;;;;;;;;4995340;28;20446;-47
2023/09/17 00:51:25;;;;;;;20.10;19.00;;;;;;;;;;4995216;28;20465;-46
2023/09/17 00:53:51;;;;;;;18.93;17.93;;;;;;;;;;4995392;28;20404;-46
2023/09/17 00:56:17;;;;;;;20.23;19.13;;;;;;;;;;4995646;28;20403;-46
2023/09/17 00:58:44;;;;;;;18.73;17.73;;;;;;;;;;4995297;28;20425;-46
2023/09/17 01:01:12;;;;;;;20.13;19.03;;;;;;;;;;4994815;28;20414;-47
2023/09/17 01:03:39;;;;;;;20.73;19.63;;;;;;;;;;4994881;28;20396;-46
2023/09/17 01:06:05;;;;;;;19.77;18.67;;;;;;;;;;4994707;28;20424;-46
2023/09/17 01:08:31;;;;;;;19.97;18.87;;;;;;;;;;4994971;28;20438;-46
2023/09/17 01:10:58;;;;;;;20.83;19.73;;;;;;;;;;4994950;28;20414;-46
2023/09/17 01:13:24;;;;;;;21.23;20.13;;;;;;;;;;4995028;28;20389;-46
2023/09/17 01:15:53;;;;;;;20.40;19.30;;;;;;;;;;4995011;28;20400;-46
2023/09/17 01:18:21;;;;;;;21.27;20.17;;;;;;;;;;4994999;28;20375;-46
2023/09/17 01:21:02;;;;;;;21.73;20.53;;;;;;;;;;4994789;28;20442;-47
2023/09/17 01:23:47;;;;;;;20.73;19.63;;;;;;;;;;4994917;28;20406;-46
2023/09/17 01:26:27;;;;;;;20.87;19.77;;;;;;;;;;4992836;28;20922;-47
2023/09/17 01:28:54;;;;;;;20.93;19.80;;;;;;;;;;5000891;28;20797;-46
2023/09/17 01:31:21;;;;;;;20.93;19.83;;;;;;;;;;4999477;28;20484;-47
2023/09/17 01:33:47;;;;;;;20.73;19.63;;;;;;;;;;4997386;28;20437;-47
2023/09/17 01:36:22;;;;;;;22.77;21.57;;;;;;;;;;4994971;28;20407;-46
2023/09/17 01:38:50;;;;;;;21.30;20.17;;;;;;;;;;4991877;28;20747;-46
2023/09/17 01:41:17;;;;;;;21.90;20.70;;;;;;;;;;4994400;28;20965;-46
2023/09/17 01:43:44;;;;;;;22.67;21.47;;;;;;;;;;5001167;28;20815;-46
2023/09/17 01:46:11;;;;;;;22.00;20.80;;;;;;;;;;5002580;28;20415;-46
2023/09/17 01:48:38;;;;;;;22.40;21.20;;;;;;;;;;4991740;28;20875;-45
2023/09/17 01:51:04;;;;;;;22.37;21.17;;;;;;;;;;4994376;28;20485;-46
2023/09/17 01:53:31;;;;;;;23.30;22.00;;;;;;;;;;4994347;28;20427;-47
2023/09/17 01:55:57;;;;;;;23.20;21.90;;;;;;;;;;4994199;28;20458;-47
2023/09/17 01:58:23;;;;;;;22.80;21.50;;;;;;;;;;4994052;28;20474;-46
2023/09/17 02:00:52;;;;;;;22.80;21.50;;;;;;;;;;4994028;28;20410;-46
2023/09/17 02:03:18;;;;;;;22.77;21.47;;;;;;;;;;4994338;28;20413;-46
2023/09/17 02:05:44;;;;;;;22.50;21.20;;;;;;;;;;4994060;28;20390;-46
2023/09/17 02:08:10;;;;;;;23.43;22.03;;;;;;;;;;4994098;28;20463;-46
2023/09/17 02:10:36;;;;;;;22.10;20.80;;;;;;;;;;4993671;28;20846;-46
2023/09/17 02:13:02;;;;;;;22.97;21.67;;;;;;;;;;4994057;28;20418;-46
2023/09/17 02:15:28;;;;;;;23.23;21.93;;;;;;;;;;4993997;28;20410;-47
2023/09/17 02:17:54;;;;;;;23.57;22.20;;;;;;;;;;4993961;28;20895;-46
2023/09/17 02:20:20;;;;;;;22.70;21.40;;;;;;;;;;4993960;28;20517;-46
2023/09/17 02:22:46;;;;;;;22.10;20.80;;;;;;;;;;4993747;28;20406;-46
2023/09/17 02:25:12;;;;;;;22.43;21.13;;;;;;;;;;4993647;28;20407;-46
2023/09/17 02:27:39;;;;;;;23.20;21.80;;;;;;;;;;4993684;28;20442;-46
2023/09/17 02:30:05;;;;;;;21.87;20.57;;;;;;;;;;4993729;28;20428;-46
2023/09/17 02:32:31;;;;;;;23.23;21.83;;;;;;;;;;4995015;28;20471;-46
2023/09/17 02:34:57;;;;;;;22.47;21.13;;;;;;;;;;4995095;28;20398;-46
2023/09/17 02:37:23;;;;;;;22.27;20.97;;;;;;;;;;4998213;28;20474;-46
2023/09/17 02:39:49;;;;;;;22.90;21.60;;;;;;;;;;4996538;28;20424;-46
2023/09/17 02:42:16;;;;;;;22.57;21.27;;;;;;;;;;4993383;28;20458;-46
2023/09/17 02:44:42;;;;;;;22.00;20.70;;;;;;;;;;4993504;28;20379;-46
2023/09/17 02:47:09;;;;;;;23.47;22.17;;;;;;;;;;4993538;28;20939;-46
2023/09/17 02:49:35;;;;;;;23.27;21.97;;;;;;;;;;4993174;28;20449;-46
2023/09/17 02:52:01;;;;;;;23.17;21.87;;;;;;;;;;4993275;28;20422;-46
2023/09/17 02:54:27;;;;;;;24.10;22.70;;;;;;;;;;4993101;28;20417;-47
2023/09/17 02:56:53;;;;;;;23.30;22.00;;;;;;;;;;4993284;28;20784;-46
2023/09/17 02:59:19;;;;;;;24.80;23.40;;;;;;;;;;4992718;28;20415;-46
2023/09/17 03:01:45;;;;;;;24.23;22.93;;;;;;;;;;4993275;28;20412;-46
2023/09/17 03:04:11;;;;;;;25.30;23.90;;;;;;;;;;4993079;28;20950;-45
2023/09/17 03:06:37;;;;;;;24.30;23.00;;;;;;;;;;4993154;28;20633;-47
2023/09/17 03:09:10;;;;;;;25.00;23.60;;;;;;;;;;4991944;28;20569;-46
2023/09/17 03:11:36;;;;;;;25.60;24.20;;;;;;;;;;4992972;28;20486;-46
2023/09/17 03:14:02;;;;;;;25.43;24.03;;;;;;;;;;4992990;28;20443;-46
2023/09/17 03:16:29;;;;;;;25.77;24.37;;;;;;;;;;4993031;28;20419;-47
2023/09/17 03:18:55;;;;;;;25.00;23.60;;;;;;;;;;4992768;28;20388;-46
2023/09/17 03:21:21;;;;;;;25.27;23.87;;;;;;;;;;4992555;28;20886;-46
2023/09/17 03:23:47;;;;;;;25.37;23.97;;;;;;;;;;4992889;28;20427;-46
2023/09/17 03:26:13;;;;;;;24.17;22.87;;;;;;;;;;4992712;28;20394;-47
2023/09/17 03:28:39;;;;;;;24.10;22.80;;;;;;;;;;4992685;28;20473;-46
2023/09/17 03:31:05;;;;;;;24.20;22.90;;;;;;;;;;4992341;28;20435;-45
2023/09/17 03:33:31;;;;;;;25.70;24.30;;;;;;;;;;4992629;28;20418;-46
2023/09/17 03:35:59;;;;;;;25.50;24.10;;;;;;;;;;4992335;28;20412;-46
2023/09/17 03:38:25;;;;;;;24.93;23.53;;;;;;;;;;4992477;28;20447;-45
2023/09/17 03:40:51;;;;;;;24.83;23.47;;;;;;;;;;4992037;28;20507;-46
2023/09/17 03:43:17;;;;;;;24.67;23.33;;;;;;;;;;4992926;28;20469;-46
2023/09/17 03:45:43;;;;;;;24.40;23.10;;;;;;;;;;4992350;28;20402;-46
2023/09/17 03:48:09;;;;;;;25.53;24.13;;;;;;;;;;4992439;28;20460;-46
2023/09/17 03:50:39;;;;;;;24.53;23.23;;;;;;;;;;4992033;28;20439;-46
2023/09/17 03:53:05;;;;;;;25.40;24.00;;;;;;;;;;4992652;28;20409;-46
2023/09/17 03:55:31;;;;;;;25.80;24.40;;;;;;;;;;4992229;28;20426;-45
2023/09/17 03:57:57;;;;;;;24.03;22.73;;;;;;;;;;4992380;28;20420;-45
2023/09/17 04:00:24;;;;;;;23.10;21.83;;;;;;;;;;4991839;28;20441;-47
2023/09/17 04:02:52;;;;;;;23.50;22.20;;;;;;;;;;4992371;28;20396;-46
2023/09/17 04:05:18;;;;;;;23.23;21.93;;;;;;;;;;4992184;28;20969;-46
2023/09/17 04:07:45;;;;;;;23.43;22.13;;;;;;;;;;4992211;28;20440;-47
2023/09/17 04:10:12;;;;;;;23.20;21.90;;;;;;;;;;4991813;28;20965;-46
2023/09/17 04:12:38;;;;;;;23.40;22.10;;;;;;;;;;4992361;28;20400;-46
2023/09/17 04:15:08;;;;;;;23.80;22.50;;;;;;;;;;4992501;28;20430;-46
2023/09/17 04:17:34;;;;;;;24.30;23.00;;;;;;;;;;4992621;28;20513;-45
2023/09/17 04:20:01;;;;;;;22.60;21.33;;;;;;;;;;4992137;28;20468;-46
2023/09/17 04:22:27;;;;;;;23.57;22.27;;;;;;;;;;4996129;28;20985;-46
2023/09/17 04:24:53;;;;;;;22.53;21.33;;;;;;;;;;4996117;28;20910;-46
2023/09/17 04:27:19;;;;;;;24.47;23.10;;;;;;;;;;4995919;28;20524;-47
2023/09/17 04:29:44;;;;;;;23.57;22.27;;;;;;;;;;4995569;28;20487;-46
2023/09/17 04:32:12;;;;;;;24.00;22.70;;;;;;;;;;4995840;28;20501;-45
2023/09/17 04:34:38;;;;;;;25.17;23.77;;;;;;;;;;4995948;28;20400;-45
2023/09/17 04:37:04;;;;;;;23.70;22.40;;;;;;;;;;4995880;28;20427;-46
2023/09/17 04:39:30;;;;;;;23.83;22.53;;;;;;;;;;4995401;28;20398;-46
2023/09/17 04:41:55;;;;;;;23.63;22.33;;;;;;;;;;4995789;28;20902;-46
2023/09/17 04:44:22;;;;;;;23.60;22.30;;;;;;;;;;4995755;28;20750;-46
2023/09/17 04:46:48;;;;;;;23.30;22.00;;;;;;;;;;4995420;28;20426;-45
2023/09/17 04:49:14;;;;;;;24.27;22.87;;;;;;;;;;4995435;28;20475;-45
2023/09/17 04:51:40;;;;;;;25.93;24.43;;;;;;;;;;4995461;28;20419;-46
2023/09/17 04:54:06;;;;;;;27.07;25.57;;;;;;;;;;4995504;28;20431;-45
2023/09/17 04:56:32;;;;;;;25.70;24.20;;;;;;;;;;4995767;28;20763;-46
2023/09/17 04:58:59;;;;;;;24.23;22.83;;;;;;;;;;4995271;28;20472;-46
2023/09/17 05:01:25;;;;;;;24.50;23.10;;;;;;;;;;5000375;28;20940;-46
2023/09/17 05:03:51;;;;;;;24.20;22.80;;;;;;;;;;4995246;28;20801;-45
2023/09/17 05:06:17;;;;;;;23.97;22.57;;;;;;;;;;4995249;28;20745;-46
2023/09/17 05:08:43;;;;;;;24.40;23.00;;;;;;;;;;4995131;28;20967;-46
2023/09/17 05:11:09;;;;;;;24.03;22.63;;;;;;;;;;4994971;28;20431;-45
2023/09/17 05:13:35;;;;;;;24.80;23.30;;;;;;;;;;4995268;28;20462;-45
2023/09/17 05:16:01;;;;;;;24.00;22.60;;;;;;;;;;4994922;28;20403;-46
2023/09/17 05:18:27;;;;;;;24.83;23.33;;;;;;;;;;4995095;28;20480;-46
2023/09/17 05:20:54;;;;;;;26.93;25.33;;;;;;;;;;4994612;28;20418;-46
2023/09/17 05:23:20;;;;;;;24.43;23.03;;;;;;;;;;4995015;28;20413;-47
2023/09/17 05:25:46;;;;;;;24.73;23.33;;;;;;;;;;4994971;28;20815;-46
2023/09/17 05:28:12;;;;;;;24.57;23.17;;;;;;;;;;4994917;28;20464;-46
2023/09/17 05:30:38;;;;;;;23.63;22.23;;;;;;;;;;4994504;28;20575;-46
2023/09/17 05:33:05;;;;;;;24.20;22.80;;;;;;;;;;4994017;28;20776;-46
2023/09/17 05:35:34;;;;;;;24.03;22.63;;;;;;;;;;4995094;28;20476;-47
2023/09/17 05:38:00;;;;;;;24.40;23.00;;;;;;;;;;4994688;28;20393;-46
2023/09/17 05:40:27;;;;;;;25.00;23.50;;;;;;;;;;4994317;28;20420;-46
2023/09/17 05:42:53;;;;;;;24.90;23.50;;;;;;;;;;4994619;28;20423;-46
2023/09/17 05:45:19;;;;;;;24.90;23.40;;;;;;;;;;4994573;28;20474;-46
2023/09/17 05:47:45;;;;;;;25.70;24.10;;;;;;;;;;4994492;28;20854;-45
2023/09/17 05:50:11;;;;;;;24.57;23.17;;;;;;;;;;4994374;28;20434;-46
2023/09/17 05:52:37;;;;;;;23.87;22.47;;;;;;;;;;4994499;28;20446;-46
2023/09/17 05:55:04;;;;;;;24.00;22.60;;;;;;;;;;4994518;28;20470;-46
2023/09/17 05:57:30;;;;;;;23.30;21.90;;;;;;;;;;4994256;28;20433;-46
2023/09/17 05:59:56;;;;;;;25.03;23.53;;;;;;;;;;4994230;28;20421;-46
2023/09/17 06:02:22;;;;;;;24.63;23.23;;;;;;;;;;4994425;28;20520;-45
2023/09/17 06:04:52;;;;;;;25.57;24.07;;;;;;;;;;4994295;28;20507;-45
2023/09/17 06:07:18;;;;;;;25.10;23.60;;;;;;;;;;4994141;28;20421;-45
2023/09/17 06:09:44;;;;;;;23.90;22.43;;;;;;;;;;4993814;28;20549;-45
2023/09/17 06:12:12;;;;;;;24.47;22.97;;;;;;;;;;4994120;28;20888;-45
2023/09/17 06:14:37;;;;;;;23.27;21.87;;;;;;;;;;4994213;28;20402;-45
2023/09/17 06:17:04;;;;;;;23.77;22.37;;;;;;;;;;4993923;28;20418;-47
2023/09/17 06:19:31;;;;;;;24.87;23.37;;;;;;;;;;4993883;28;22209;-46
2023/09/17 06:21:57;;;;;;;23.30;21.90;;;;;;;;;;4993572;28;20415;-45
2023/09/17 06:24:23;;;;;;;22.67;21.27;;;;;;;;;;4993971;28;20794;-45
2023/09/17 06:26:50;;;;;;;24.30;22.80;;;;;;;;;;4993623;28;20388;-45
2023/09/17 06:29:16;;;;;;;24.93;23.43;;;;;;;;;;4993690;28;20828;-45
2023/09/17 06:31:42;;;;;;;24.00;22.60;;;;;;;;;;4993690;28;20406;-45
2023/09/17 06:34:09;;;;;;;24.60;23.10;;;;;;;;;;4993869;28;20379;-44
2023/09/17 06:36:35;;;;;;;24.30;22.80;;;;;;;;;;4994189;28;20403;-46
2023/09/17 06:39:01;;;;;;;23.10;21.70;;;;;;;;;;4992738;28;20421;-48
2023/09/17 06:41:27;;;;;;;25.13;23.53;;;;;;;;;;4993477;28;20463;-47
2023/09/17 06:43:53;;;;;;;23.00;21.60;;;;;;;;;;4992485;28;20426;-46
2023/09/17 06:46:19;;;;;;;23.77;22.27;;;;;;;;;;4996772;28;20396;-47
2023/09/17 06:48:45;;;;;;;24.37;22.97;;;;;;;;;;4993201;28;20471;-46
2023/09/17 06:51:11;;;;;;;24.77;23.37;;;;;;;;;;4999353;28;20403;-46
2023/09/17 06:53:37;;;;;;;24.47;22.90;;;;;;;;;;5000330;28;20905;-46
2023/09/17 06:56:03;;;;;;;23.90;22.50;;;;;;;;;;4993801;28;20425;-46
2023/09/17 06:58:29;;;;;;;24.73;23.23;;;;;;;;;;4994077;28;20744;-47
2023/09/17 07:00:55;;;;;;;23.30;21.90;;;;;;;;;;4994079;28;20916;-47
2023/09/17 07:03:21;;;;;;;23.67;22.27;;;;;;;;;;4990226;28;20440;-48
2023/09/17 07:05:47;;;;;;;24.10;22.70;;;;;;;;;;4991824;28;20431;-48
2023/09/17 07:08:13;;;;;;;23.83;22.43;;;;;;;;;;4992793;28;20455;-47
2023/09/17 07:10:39;;;;;;;24.27;22.77;;;;;;;;;;4992610;28;20461;-47
2023/09/17 07:13:05;;;;;;;25.20;23.70;;;;;;;;;;4993210;28;20406;-46
2023/09/17 07:15:31;;;;;;;23.43;22.07;;;;;;;;;;4992975;28;20916;-46
2023/09/17 07:17:57;;;;;;;25.17;23.77;;;;;;;;;;4992734;28;20416;-46
2023/09/17 07:20:23;;;;;;;27.17;25.67;;;;;;;;;;4992545;28;20431;-46
2023/09/17 07:22:49;;;;;;;25.50;24.10;;;;;;;;;;4992562;28;20527;-46
2023/09/17 07:25:15;;;;;;;25.00;23.70;;;;;;;;;;4992897;28;20418;-46
2023/09/17 07:27:41;;;;;;;23.17;21.97;;;;;;;;;;4992637;28;20467;-45
2023/09/17 07:30:07;;;;;;;24.60;23.30;;;;;;;;;;4992674;28;20443;-47
2023/09/17 07:32:33;;;;;;;22.67;21.47;;;;;;;;;;4992744;28;20419;-46
2023/09/17 07:35:03;;;;;;;22.53;21.33;;;;;;;;;;4992508;28;20543;-46
2023/09/17 07:37:29;;;;;;;22.73;21.53;;;;;;;;;;4992572;28;20490;-46
2023/09/17 07:39:59;;;;;;;22.80;21.60;;;;;;;;;;4992109;28;20931;-47
2023/09/17 07:42:25;;;;;;;22.03;20.93;;;;;;;;;;4992415;28;20416;-46
2023/09/17 07:44:51;;;;;;;21.70;20.60;;;;;;;;;;4991431;28;20571;-46
2023/09/17 07:47:17;;;;;;;21.87;20.77;;;;;;;;;;4992470;28;20907;-47
2023/09/17 07:49:43;;;;;;;21.70;20.60;;;;;;;;;;4987432;28;20470;-46
2023/09/17 07:52:09;;;;;;;22.03;20.90;;;;;;;;;;4992457;28;20426;-47
2023/09/17 07:54:39;;;;;;;21.87;20.67;;;;;;;;;;4992386;28;20418;-45
2023/09/17 07:57:05;;;;;;;22.13;20.93;;;;;;;;;;4992287;28;20821;-46
2023/09/17 07:59:31;;;;;;;21.93;20.73;;;;;;;;;;4991506;28;20916;-46
2023/09/17 08:01:58;;;;;;;22.07;20.80;;;;;;;;;;4990463;28;20408;-45
2023/09/17 08:04:24;;;;;;;21.93;20.70;;;;;;;;;;4991120;28;20440;-45
2023/09/17 08:06:50;;;;;;;21.90;20.70;;;;;;;;;;4993436;28;20451;-46
2023/09/17 08:09:16;;;;;;;23.37;21.97;;;;;;;;;;4994706;28;20550;-46
2023/09/17 08:11:43;;;;;;;23.00;21.63;;;;;;;;;;4996658;28;20950;-45
2023/09/17 08:14:09;;;;;;;22.33;21.03;;;;;;;;;;4983887;28;20465;-46
2023/09/17 08:16:35;;;;;;;22.20;20.90;;;;;;;;;;4992294;28;20404;-46
2023/09/17 08:19:01;;;;;;;22.60;21.30;;;;;;;;;;4991678;28;20432;-46
2023/09/17 08:21:27;;;;;;;21.23;20.03;;;;;;;;;;4991956;28;20492;-47
2023/09/17 08:23:54;;;;;;;21.90;20.70;;;;;;;;;;4994674;28;20467;-46
2023/09/17 08:26:21;;;;;;;21.20;20.00;;;;;;;;;;4996561;28;20416;-46
2023/09/17 08:28:49;;;;;;;21.10;19.90;;;;;;;;;;4997987;28;20462;-46
2023/09/17 08:31:16;;;;;;;19.87;18.77;;;;;;;;;;4991885;28;20447;-45
2023/09/17 08:33:42;;;;;;;20.33;19.17;;;;;;;;;;4991945;28;20411;-46
2023/09/17 08:36:09;;;;;;;19.70;18.60;;;;;;;;;;4992039;28;20415;-46
2023/09/17 08:38:36;;;;;;;20.13;19.03;;;;;;;;;;4991905;28;20420;-46
2023/09/17 08:41:03;;;;;;;20.63;19.53;;;;;;;;;;4991633;28;20436;-46
2023/09/17 08:43:29;;;;;;;19.70;18.60;;;;;;;;;;4997877;28;20502;-46
2023/09/17 08:45:55;;;;;;;19.83;18.73;;;;;;;;;;4999459;28;20937;-46
2023/09/17 08:48:22;;;;;;;19.30;18.30;;;;;;;;;;4991781;28;20451;-46
2023/09/17 08:50:50;;;;;;;20.00;18.90;;;;;;;;;;4994138;28;20423;-46
2023/09/17 08:53:18;;;;;;;19.20;18.20;;;;;;;;;;4992533;28;20408;-46
2023/09/17 08:55:45;;;;;;;20.73;19.63;;;;;;;;;;4994868;28;20411;-46
2023/09/17 08:58:18;;;;;;;19.40;18.40;;;;;;;;;;4997603;28;20455;-46
2023/09/17 09:00:47;;;;;;;19.23;18.13;;;;;;;;;;4998947;28;20432;-46
2023/09/17 09:03:14;;;;;;;19.93;18.83;;;;;;;;;;4991598;28;20739;-46
2023/09/17 09:05:40;;;;;;;20.17;19.07;;;;;;;;;;4994315;28;20405;-47
2023/09/17 09:08:06;;;;;;;19.90;18.80;;;;;;;;;;4993657;28;20463;-47
2023/09/17 09:10:32;;;;;;;19.00;18.00;;;;;;;;;;4999394;28;20496;-47
2023/09/17 09:13:00;;;;;;;19.13;18.13;;;;;;;;;;4996447;28;20551;-46
2023/09/17 09:15:26;;;;;;;19.13;18.13;;;;;;;;;;4995087;28;20454;-46
2023/09/17 09:17:55;;;;;;;18.47;17.50;;;;;;;;;;4995881;28;20416;-46
2023/09/17 09:20:21;;;;;;;18.90;17.90;;;;;;;;;;4997252;28;20494;-46
2023/09/17 09:22:47;;;;;;;17.87;16.97;;;;;;;;;;4995042;28;20444;-46
2023/09/17 09:25:16;;;;;;;18.63;17.73;;;;;;;;;;4994946;28;20431;-47
2023/09/17 09:27:43;;;;;;;17.77;16.90;;;;;;;;;;4995021;28;20893;-47
2023/09/17 09:30:16;;;;;;;18.30;17.40;;;;;;;;;;4986706;28;20471;-46
2023/09/17 09:32:43;;;;;;;18.87;17.87;;;;;;;;;;4994948;28;20415;-48
2023/09/17 09:35:09;;;;;;;18.60;17.60;;;;;;;;;;4995056;28;20503;-47
2023/09/17 09:37:35;;;;;;;19.07;18.07;;;;;;;;;;4994910;28;20435;-46
2023/09/17 09:40:01;;;;;;;18.70;17.70;;;;;;;;;;4994374;28;20436;-46
2023/09/17 09:42:27;;;;;;;17.73;16.83;;;;;;;;;;4994857;28;20416;-48
2023/09/17 09:44:54;;;;;;;17.67;16.77;;;;;;;;;;4994616;28;20423;-46
2023/09/17 09:47:22;;;;;;;18.40;17.50;;;;;;;;;;4994561;28;20532;-46
2023/09/17 09:49:48;;;;;;;19.33;18.33;;;;;;;;;;4994542;28;20797;-46
2023/09/17 09:52:15;;;;;;;19.07;18.13;;;;;;;;;;4994683;28;20415;-46
2023/09/17 09:54:41;;;;;;;20.43;19.33;;;;;;;;;;4994613;28;20475;-47
2023/09/17 09:57:07;;;;;;;19.77;18.70;;;;;;;;;;4994499;28;20408;-46
2023/09/17 09:59:33;;;;;;;20.50;19.40;;;;;;;;;;4994025;28;20489;-46
2023/09/17 10:02:02;;;;;;;19.63;18.63;;;;;;;;;;4994414;28;20420;-47
2023/09/17 10:04:28;;;;;;;19.60;18.60;;;;;;;;;;4994414;28;20419;-46
2023/09/17 10:06:55;;;;;;;20.00;19.00;;;;;;;;;;4994341;28;20470;-46
2023/09/17 10:09:23;;;;;;;18.40;17.47;;;;;;;;;;4993893;28;20554;-46
2023/09/17 10:11:49;;;;;;;19.13;18.13;;;;;;;;;;4994200;28;20458;-47
2023/09/17 10:14:14;;;;;;;19.30;18.30;;;;;;;;;;4994482;28;20408;-47
2023/09/17 10:16:41;;;;;;;18.30;17.40;;;;;;;;;;4994118;28;20419;-46
2023/09/17 10:19:07;;;;;;;20.07;19.00;;;;;;;;;;4993512;28;20508;-47
2023/09/17 10:21:37;;;;;;;19.43;18.43;;;;;;;;;;4994000;28;20880;-48
2023/09/17 10:24:03;;;;;;;19.87;18.87;;;;;;;;;;4993705;28;20439;-48
2023/09/17 10:26:32;;;;;;;20.13;19.07;;;;;;;;;;4993470;28;20422;-47
2023/09/17 10:29:00;;;;;;;19.00;18.00;;;;;;;;;;4993574;28;20495;-47
2023/09/17 10:31:27;;;;;;;18.43;17.53;;;;;;;;;;4995567;28;20432;-47
2023/09/17 10:33:53;;;;;;;21.13;19.97;;;;;;;;;;4995252;28;20412;-48
2023/09/17 10:36:19;;;;;;;17.83;16.93;;;;;;;;;;4998127;28;20419;-47
2023/09/17 10:38:46;;;;;;;18.40;17.50;;;;;;;;;;4999393;28;20441;-47
2023/09/17 10:41:13;;;;;;;20.03;18.93;;;;;;;;;;4993129;28;20498;-47
2023/09/17 10:43:40;;;;;;;17.40;16.53;;;;;;;;;;4995785;28;20412;-46
2023/09/17 10:46:06;;;;;;;17.70;16.80;;;;;;;;;;4997176;28;20963;-46
2023/09/17 10:48:33;;;;;;;18.30;17.40;;;;;;;;;;4993277;28;20470;-47
2023/09/17 10:50:59;;;;;;;19.60;18.60;;;;;;;;;;4993035;28;20852;-47
2023/09/17 10:53:26;;;;;;;18.23;17.27;;;;;;;;;;4993238;28;20400;-46
2023/09/17 10:55:57;;;;;;;20.30;19.20;;;;;;;;;;4993239;28;20420;-48
2023/09/17 10:58:36;;;;;;;19.60;18.60;;;;;;;;;;4995390;28;20478;-48
2023/09/17 11:01:02;;;;;;;20.30;19.30;;;;;;;;;;4992878;28;20444;-47
2023/09/17 11:03:29;;;;;;;19.13;18.13;;;;;;;;;;4998693;28;20418;-46
2023/09/17 11:05:56;;;;;;;18.70;17.70;;;;;;;;;;5000017;28;20494;-47
2023/09/17 11:08:22;;;;;;;18.50;17.50;;;;;;;;;;4992930;28;20455;-48
2023/09/17 11:10:48;;;;;;;19.93;18.90;;;;;;;;;;4994881;28;20431;-47
2023/09/17 11:13:15;;;;;;;18.90;17.90;;;;;;;;;;4992911;28;20892;-46
2023/09/17 11:15:44;;;;;;;19.57;18.57;;;;;;;;;;4992903;28;20866;-46
2023/09/17 11:18:11;;;;;;;18.17;17.23;;;;;;;;;;4995866;28;20427;-46
2023/09/17 11:20:56;;;;;;;17.93;17.03;;;;;;;;;;4992374;28;20527;-47
2023/09/17 11:23:35;;;;;;;18.23;17.33;;;;;;;;;;4987787;28;20484;-47
2023/09/17 11:26:01;;;;;;;18.87;17.87;;;;;;;;;;4995000;28;20783;-46
2023/09/17 11:28:33;;;;;;;17.97;17.07;;;;;;;;;;4996336;28;20966;-46
2023/09/17 11:31:02;;;;;;;18.67;17.70;;;;;;;;;;4991667;28;20428;-46
2023/09/17 11:33:28;;;;;;;18.20;17.30;;;;;;;;;;4992612;28;20408;-47
2023/09/17 11:35:55;;;;;;;19.57;18.47;;;;;;;;;;4992617;28;20483;-47
2023/09/17 11:38:24;;;;;;;19.80;18.73;;;;;;;;;;4992497;28;20513;-46
2023/09/17 11:41:09;;;;;;;19.93;18.93;;;;;;;;;;4994311;28;20482;-48
2023/09/17 11:43:39;;;;;;;20.37;19.27;;;;;;;;;;4992258;28;20938;-47
2023/09/17 11:46:07;;;;;;;18.27;17.37;;;;;;;;;;4992846;28;20447;-47
2023/09/17 11:48:35;;;;;;;19.63;18.63;;;;;;;;;;4999308;28;20969;-47
2023/09/17 11:51:17;;;;;;;19.97;18.93;;;;;;;;;;4992063;28;20931;-46
2023/09/17 11:54:18;;;;;;;19.93;18.93;;;;;;;;;;4992306;28;20412;-46
2023/09/17 11:56:49;;;;;;;20.10;19.10;;;;;;;;;;4991753;28;20843;-46
2023/09/17 11:59:18;;;;;;;19.97;18.93;;;;;;;;;;4992218;28;20796;-46
2023/09/17 12:01:50;;;;;;;18.80;17.90;;;;;;;;;;4992200;28;20447;-46
2023/09/17 12:04:17;;;;;;;19.13;18.13;;;;;;;;;;4992138;28;20856;-46
2023/09/17 12:06:49;;;;;;;18.87;17.87;;;;;;;;;;4994099;28;20412;-46
2023/09/17 12:12:06;;;;;;;19.03;18.07;;;;;;;;;;4992107;28;20407;-47
2023/09/17 12:14:32;;;;;;;18.00;17.10;;;;;;;;;;4997041;28;20404;-48
2023/09/17 12:16:58;;;;;;;17.37;16.53;;;;;;;;;;4993331;28;20899;-47
2023/09/17 12:19:25;;;;;;;17.70;16.80;;;;;;;;;;4992032;28;20496;-47
2023/09/17 12:21:53;;;;;;;17.57;16.77;;;;;;;;;;4992074;28;20420;-46
2023/09/17 12:24:29;;;;;;;17.57;16.67;;;;;;;;;;4996476;28;20419;-47
2023/09/17 12:27:35;;;;;;;17.47;16.57;;;;;;;;;;4997348;28;20414;-47
2023/09/17 12:30:03;;;;;;;18.10;17.20;;;;;;;;;;4998536;28;20438;-46
2023/09/17 12:32:34;;;;;;;18.60;17.67;;;;;;;;;;4991975;28;20411;-46
2023/09/17 12:35:00;;;;;;;17.77;16.90;;;;;;;;;;4993937;28;20435;-47
2023/09/17 12:37:27;;;;;;;17.20;16.40;;;;;;;;;;4993281;28;20523;-46
2023/09/17 12:39:53;;;;;;;16.33;15.53;;;;;;;;;;4993474;28;20519;-46
2023/09/17 12:42:20;;;;;;;16.77;15.97;;;;;;;;;;4992771;28;20455;-46
2023/09/17 12:44:47;;;;;;;16.43;15.63;;;;;;;;;;5003180;28;20423;-46
2023/09/17 12:47:13;;;;;;;16.07;15.27;;;;;;;;;;4995442;28;20532;-47
2023/09/17 12:49:39;;;;;;;16.90;16.10;;;;;;;;;;4997176;28;20522;-46
2023/09/17 12:52:05;;;;;;;16.60;15.80;;;;;;;;;;4994993;28;20554;-46
2023/09/17 12:54:31;;;;;;;16.57;15.77;;;;;;;;;;4994247;28;20419;-46
2023/09/17 12:56:59;;;;;;;14.27;13.63;;;;;;;;;;4995762;28;20407;-46
2023/09/17 12:59:31;;;;;;;14.57;13.87;;;;;;;;;;5001354;28;20407;-46
2023/09/17 13:01:58;;;;;;;13.67;13.07;;;;;;;;;;4995462;28;20838;-46
2023/09/17 13:04:37;;;;;;;14.20;13.50;;;;;;;;;;4997203;28;20419;-46
2023/09/17 13:07:16;;;;;;;16.10;15.30;;;;;;;;;;4998719;28;20443;-46
2023/09/17 13:09:43;;;;;;;16.10;15.30;;;;;;;;;;5000002;28;20955;-46
2023/09/17 13:12:09;;;;;;;16.07;15.27;;;;;;;;;;4994111;28;20491;-46
2023/09/17 13:14:38;;;;;;;16.60;15.80;;;;;;;;;;4994422;28;20436;-46
2023/09/17 13:17:04;;;;;;;15.27;14.57;;;;;;;;;;4995068;28;20483;-46
2023/09/17 13:19:30;;;;;;;15.93;15.13;;;;;;;;;;4996239;28;20785;-46
2023/09/17 13:21:56;;;;;;;16.60;15.80;;;;;;;;;;4996664;28;20408;-47
2023/09/17 13:24:22;;;;;;;16.00;15.20;;;;;;;;;;4995299;28;20455;-46
2023/09/17 13:26:48;;;;;;;16.10;15.30;;;;;;;;;;4994795;28;20415;-46
2023/09/17 13:29:14;;;;;;;15.97;15.27;;;;;;;;;;4994503;28;20570;-46
2023/09/17 13:31:40;;;;;;;16.40;15.60;;;;;;;;;;4996606;28;20971;-46
2023/09/17 13:34:08;;;;;;;15.63;14.83;;;;;;;;;;4998003;28;20408;-45
2023/09/17 13:36:34;;;;;;;14.93;14.23;;;;;;;;;;4998631;28;20411;-46
2023/09/17 13:39:00;;;;;;;15.47;14.77;;;;;;;;;;4995417;28;20462;-46
2023/09/17 13:41:28;;;;;;;16.30;15.50;;;;;;;;;;4994750;28;20475;-46
2023/09/17 13:43:55;;;;;;;16.10;15.30;;;;;;;;;;4994622;28;20412;-46
2023/09/17 13:46:24;;;;;;;15.90;15.10;;;;;;;;;;4996201;28;20797;-46
2023/09/17 13:48:50;;;;;;;15.37;14.67;;;;;;;;;;4997748;28;20546;-46
2023/09/17 13:51:16;;;;;;;14.43;13.73;;;;;;;;;;4994254;28;20520;-46
2023/09/17 13:53:42;;;;;;;16.20;15.40;;;;;;;;;;5000382;28;20191;-46
2023/09/17 13:56:08;;;;;;;16.43;15.63;;;;;;;;;;4986477;28;20188;-46
2023/09/17 13:58:34;;;;;;;15.90;15.10;;;;;;;;;;4994848;28;20756;-46
2023/09/17 14:01:00;;;;;;;16.30;15.50;;;;;;;;;;4995030;28;20510;-46
2023/09/17 14:03:26;;;;;;;16.40;15.60;;;;;;;;;;4997489;28;20412;-46
2023/09/17 14:05:52;;;;;;;16.17;15.37;;;;;;;;;;4998806;28;20420;-46
2023/09/17 14:08:18;;;;;;;17.60;16.70;;;;;;;;;;4994123;28;20212;-46
2023/09/17 14:10:44;;;;;;;15.87;15.07;;;;;;;;;;5001901;28;20458;-46
2023/09/17 14:13:10;;;;;;;14.80;14.10;;;;;;;;;;4994193;28;20412;-46
2023/09/17 14:15:36;;;;;;;14.97;14.27;;;;;;;;;;4994050;28;20400;-46
2023/09/17 14:18:02;;;;;;;15.27;14.57;;;;;;;;;;4993932;28;20416;-46